Time;durP1;ratioP1;P1;durP2;ratioP2;P2;SDS_P1;SDS_P2;PMS_P1;PMS_P2;Temp;Humidity;BMP_temperature;BMP_pressure;BME280_temperature;BME280_humidity;BME280_pressure;Samples;Min_cycle;Max_cycle;Signal;HPM_P1;HPM_P2
2023/09/12 00:02:14;;;;;;;0.00;0.00;;;21.40;99.90;;;;;;6245138;22;20083;-87
2023/09/12 00:04:40;;;;;;;0.00;0.00;;;;;;;;;;6246697;22;20004;-86
2023/09/12 00:07:06;;;;;;;0.00;0.00;;;;;;;;;;6273814;22;20474;-86
2023/09/12 00:09:31;;;;;;;0.00;0.00;;;21.20;99.90;;;;;;6247620;22;20034;-87
2023/09/12 00:11:57;;;;;;;0.00;0.00;;;;;;;;;;6246582;22;20000;-87
2023/09/12 00:14:23;;;;;;;0.00;0.00;;;;;;;;;;6246786;22;20011;-88
2023/09/12 00:16:51;;;;;;;0.00;0.00;;;;;;;;;;6273097;22;20059;-87
2023/09/12 00:19:16;;;;;;;0.00;0.00;;;21.00;99.90;;;;;;6246008;22;20000;-87
2023/09/12 00:21:42;;;;;;;0.00;0.00;;;;;;;;;;6273680;22;20034;-86
2023/09/12 00:24:08;;;;;;;0.00;0.00;;;;;;;;;;6246749;22;20026;-87
2023/09/12 00:26:34;;;;;;;0.00;0.00;;;;;;;;;;6274856;22;20019;-86
2023/09/12 00:29:00;;;;;;;0.00;0.00;;;;;;;;;;6246661;22;20015;-85
2023/09/12 00:31:26;;;;;;;0.00;0.00;;;20.80;99.90;;;;;;6246271;22;20004;-87
2023/09/12 00:33:52;;;;;;;0.00;0.00;;;;;;;;;;6247232;22;20010;-87
2023/09/12 00:36:17;;;;;;;0.00;0.00;;;;;;;;;;6246860;22;20012;-88
2023/09/12 00:38:43;;;;;;;0.00;0.00;;;20.70;99.90;;;;;;6246989;22;20454;-87
2023/09/12 00:41:09;;;;;;;0.00;0.00;;;;;;;;;;6246299;22;20000;-88
2023/09/12 00:43:35;;;;;;;0.00;0.00;;;;;;;;;;6245178;22;20004;-85
2023/09/12 00:46:00;;;;;;;0.00;0.00;;;20.60;99.90;;;;;;6245705;22;20008;-88
2023/09/12 00:48:26;;;;;;;0.00;0.00;;;;;;;;;;6245455;22;20016;-87
2023/09/12 00:50:53;;;;;;;0.00;0.00;;;20.60;99.90;;;;;;6245664;22;20007;-87
2023/09/12 00:53:20;;;;;;;0.00;0.00;;;20.60;99.90;;;;;;6242178;22;20003;-86
2023/09/12 00:55:50;;;;;;;0.00;0.00;;;20.50;99.90;;;;;;6246002;22;20004;-86
2023/09/12 00:58:15;;;;;;;0.00;0.00;;;20.50;99.90;;;;;;6273315;22;19999;-87
2023/09/12 01:00:41;;;;;;;0.00;0.00;;;19.80;99.90;;;;;;6245192;22;19999;-86
2023/09/12 01:03:07;;;;;;;0.00;0.00;;;20.50;99.90;;;;;;6246013;22;20000;-88
2023/09/12 01:05:34;;;;;;;0.00;0.00;;;20.60;99.90;;;;;;6246307;22;20061;-87
2023/09/12 01:08:00;;;;;;;0.00;0.00;;;20.50;99.90;;;;;;6246100;22;20012;-85
2023/09/12 01:10:26;;;;;;;0.00;0.00;;;20.60;99.90;;;;;;6273921;22;20074;-87
2023/09/12 01:12:52;;;;;;;0.00;0.00;;;20.60;99.90;;;;;;6246237;22;20065;-86
2023/09/12 01:15:18;;;;;;;0.00;0.00;;;20.50;99.90;;;;;;6244677;22;20003;-86
2023/09/12 01:17:44;;;;;;;0.00;0.00;;;;;;;;;;6273787;22;20000;-87
2023/09/12 01:20:36;;;;;;;0.00;0.00;;;20.60;99.90;;;;;;6246482;22;20336;-87
2023/09/12 01:23:32;;;;;;;0.00;0.00;;;20.50;99.90;;;;;;6240881;22;20050;-86
2023/09/12 01:26:36;;;;;;;0.00;0.00;;;20.40;99.90;;;;;;6245488;22;20034;-87
2023/09/12 01:29:05;;;;;;;0.00;0.00;;;20.50;99.90;;;;;;6179821;22;20065;-86
2023/09/12 01:31:33;;;;;;;0.00;0.00;;;20.60;99.90;;;;;;6243835;22;20015;-87
2023/09/12 01:34:11;;;;;;;0.00;0.00;;;20.60;99.90;;;;;;6246812;22;20003;-88
2023/09/12 01:36:36;;;;;;;0.00;0.00;;;20.90;99.90;;;;;;6246592;22;20004;-88
2023/09/12 01:39:03;;;;;;;0.00;0.00;;;;;;;;;;6246995;22;20232;-86
2023/09/12 01:41:32;;;;;;;0.00;0.00;;;20.80;99.90;;;;;;6220570;22;20032;-86
2023/09/12 01:43:58;;;;;;;0.00;0.00;;;;;;;;;;6246501;22;20003;-87
2023/09/12 01:46:24;;;;;;;0.00;0.00;;;20.60;99.90;;;;;;6245326;22;20867;-86
2023/09/12 01:48:51;;;;;;;0.00;0.00;;;20.80;99.90;;;;;;6247288;22;20008;-88
2023/09/12 01:51:19;;;;;;;0.00;0.00;;;20.90;99.90;;;;;;6246072;22;20083;-87
2023/09/12 01:53:45;;;;;;;0.00;0.00;;;21.00;99.90;;;;;;6246985;22;20003;-85
2023/09/12 01:56:13;;;;;;;0.00;0.00;;;20.90;99.90;;;;;;6247463;22;20074;-87
2023/09/12 01:58:38;;;;;;;0.00;0.00;;;20.80;99.90;;;;;;6246688;22;20004;-86
2023/09/12 02:01:04;;;;;;;0.00;0.00;;;;;;;;;;6220893;22;20026;-85
2023/09/12 02:03:30;;;;;;;0.00;0.00;;;20.70;99.90;;;;;;6273926;22;19996;-87
2023/09/12 02:05:56;;;;;;;0.00;0.00;;;;;;;;;;6247797;22;20008;-87
2023/09/12 02:08:22;;;;;;;0.00;0.00;;;;;;;;;;6271792;22;20419;-87
2023/09/12 02:10:48;;;;;;;0.00;0.00;;;;;;;;;;6246926;22;20008;-85
2023/09/12 02:13:14;;;;;;;0.00;0.00;;;;;;;;;;6246632;22;20023;-87
2023/09/12 02:15:40;;;;;;;0.00;0.00;;;20.50;99.90;;;;;;6244944;22;20086;-87
2023/09/12 02:18:05;;;;;;;0.00;0.00;;;20.60;99.90;;;;;;6246248;22;20000;-86
2023/09/12 02:20:32;;;;;;;0.00;0.00;;;20.60;99.90;;;;;;6246582;22;20000;-87
2023/09/12 02:22:57;;;;;;;0.00;0.00;;;20.60;99.90;;;;;;6273141;22;20000;-87
2023/09/12 02:25:23;;;;;;;0.00;0.00;;;20.60;99.90;;;;;;6246573;22;20054;-86
2023/09/12 02:27:49;;;;;;;0.00;0.00;;;;;;;;;;6245784;22;20358;-86
2023/09/12 02:30:15;;;;;;;0.00;0.00;;;;;;;;;;6271415;22;20427;-85
2023/09/12 02:32:42;;;;;;;0.00;0.00;;;20.50;99.90;;;;;;6246394;22;20004;-86
2023/09/12 02:37:42;;;;;;;0.00;0.00;;;;;;;;;;6272799;22;20362;-85
2023/09/12 02:40:11;;;;;;;0.00;0.00;;;20.40;99.90;;;;;;6248058;22;20000;-82
2023/09/12 02:42:37;;;;;;;0.00;0.00;;;;;;;;;;6247206;22;20014;-83
2023/09/12 02:45:04;;;;;;;0.00;0.00;;;20.50;99.90;;;;;;6234348;23;20005;-84
2023/09/12 02:47:29;;;;;;;0.00;0.00;;;20.50;99.90;;;;;;6215203;23;20005;-82
2023/09/12 02:49:55;;;;;;;0.00;0.00;;;;;;;;;;6216428;23;20016;-84
2023/09/12 02:52:21;;;;;;;0.00;0.00;;;;;;;;;;6242972;23;20071;-83
2023/09/12 02:54:47;;;;;;;0.00;0.00;;;20.60;99.90;;;;;;6216851;23;20008;-82
2023/09/12 02:57:13;;;;;;;0.00;0.00;;;;;;;;;;6215651;23;20004;-83
2023/09/12 02:59:39;;;;;;;0.00;0.00;;;;;;;;;;6216366;23;20004;-83
2023/09/12 03:02:05;;;;;;;0.00;0.00;;;;;;;;;;6214929;23;20001;-84
2023/09/12 03:04:30;;;;;;;0.00;0.00;;;20.90;99.90;;;;;;6216683;23;20196;-83
2023/09/12 03:06:56;;;;;;;0.00;0.00;;;;;;;;;;6216633;23;20015;-83
2023/09/12 03:09:23;;;;;;;0.00;0.00;;;;;;;;;;6217298;23;20031;-83
2023/09/12 03:11:49;;;;;;;0.00;0.00;;;20.90;99.90;;;;;;6217685;23;20138;-83
2023/09/12 03:14:15;;;;;;;0.00;0.00;;;20.90;99.90;;;;;;6244937;22;20071;-83
2023/09/12 03:16:41;;;;;;;0.00;0.00;;;;;;;;;;6219490;23;20032;-82
2023/09/12 03:19:06;;;;;;;0.00;0.00;;;20.80;99.90;;;;;;6244408;23;20057;-83
2023/09/12 03:21:32;;;;;;;0.00;0.00;;;20.80;99.90;;;;;;6244241;23;20010;-84
2023/09/12 03:23:58;;;;;;;0.00;0.00;;;20.60;99.90;;;;;;6218929;23;20064;-83
2023/09/12 03:26:23;;;;;;;0.00;0.00;;;;;;;;;;6219751;23;20000;-83
2023/09/12 03:28:51;;;;;;;0.00;0.00;;;;;;;;;;6225262;23;20008;-82
2023/09/12 03:31:16;;;;;;;0.00;0.00;;;20.50;99.90;;;;;;6261692;22;20019;-84
2023/09/12 03:33:47;;;;;;;0.00;0.00;;;20.50;99.90;;;;;;6247511;23;20000;-85
2023/09/12 03:36:13;;;;;;;0.00;0.00;;;20.50;99.90;;;;;;6221700;23;20011;-84
2023/09/12 03:38:39;;;;;;;0.00;0.00;;;;;;;;;;6221412;23;20030;-86
2023/09/12 03:41:05;;;;;;;0.00;0.00;;;;;;;;;;6220727;23;20000;-85
2023/09/12 03:43:31;;;;;;;0.00;0.00;;;;;;;;;;6220161;23;20004;-84
2023/09/12 03:45:56;;;;;;;0.00;0.00;;;20.40;99.90;;;;;;6220561;23;20018;-84
2023/09/12 03:48:22;;;;;;;0.00;0.00;;;;;;;;;;6221131;23;20435;-85
2023/09/12 03:50:48;;;;;;;0.00;0.00;;;;;;;;;;6247043;23;20031;-85
2023/09/12 03:53:15;;;;;;;0.00;0.00;;;20.30;99.90;;;;;;6247174;23;20034;-84
2023/09/12 03:55:40;;;;;;;0.00;0.00;;;20.30;99.90;;;;;;6245356;22;20419;-85
2023/09/12 03:58:06;;;;;;;0.00;0.00;;;;;;;;;;6218813;23;20054;-83
2023/09/12 04:00:32;;;;;;;0.00;0.00;;;;;;;;;;6218542;23;20000;-86
2023/09/12 04:02:58;;;;;;;0.00;0.00;;;20.30;99.90;;;;;;6246927;23;20482;-83
2023/09/12 04:05:24;;;;;;;0.00;0.00;;;20.40;99.90;;;;;;6219019;23;20011;-83
2023/09/12 04:07:50;;;;;;;0.00;0.00;;;20.30;99.90;;;;;;6218865;23;20485;-84
2023/09/12 04:10:18;;;;;;;0.00;0.00;;;;;;;;;;6219635;23;20004;-84
2023/09/12 04:12:43;;;;;;;0.00;0.00;;;20.20;99.90;;;;;;6246524;23;20011;-83
2023/09/12 04:15:09;;;;;;;0.00;0.00;;;;;;;;;;6246148;22;20000;-83
2023/09/12 04:17:35;;;;;;;0.00;0.00;;;20.30;99.90;;;;;;6245615;23;19996;-84
2023/09/12 04:20:01;;;;;;;0.00;0.00;;;;;;;;;;6218016;23;20000;-83
2023/09/12 04:22:28;;;;;;;0.00;0.00;;;;;;;;;;6218902;23;20019;-83
2023/09/12 04:24:54;;;;;;;0.00;0.00;;;20.40;99.90;;;;;;6218751;23;20004;-83
2023/09/12 04:27:19;;;;;;;0.00;0.00;;;;;;;;;;6219615;23;20010;-82
2023/09/12 04:29:46;;;;;;;0.00;0.00;;;;;;;;;;6218932;23;20007;-85
2023/09/12 04:32:12;;;;;;;0.00;0.00;;;;;;;;;;6218422;23;20000;-84
2023/09/12 04:34:37;;;;;;;0.00;0.00;;;20.40;99.90;;;;;;6218680;23;20010;-83
2023/09/12 04:37:05;;;;;;;0.00;0.00;;;20.50;99.90;;;;;;6218439;23;20039;-83
2023/09/12 04:39:30;;;;;;;0.00;0.00;;;20.60;99.90;;;;;;6217988;23;20015;-83
2023/09/12 04:41:56;;;;;;;0.00;0.00;;;20.60;99.90;;;;;;6218580;23;20008;-83
2023/09/12 04:44:22;;;;;;;0.00;0.00;;;20.40;99.90;;;;;;6245342;22;20413;-82
2023/09/12 04:46:48;;;;;;;0.00;0.00;;;;;;;;;;6219794;23;20047;-82
2023/09/12 04:49:14;;;;;;;0.00;0.00;;;20.30;99.90;;;;;;6246080;23;20078;-82
2023/09/12 04:51:40;;;;;;;0.00;0.00;;;;;;;;;;6246006;23;20036;-83
2023/09/12 04:54:05;;;;;;;0.00;0.00;;;20.20;99.90;;;;;;6217355;22;20008;-82
2023/09/12 04:56:31;;;;;;;0.00;0.00;;;;;;;;;;6244602;23;20012;-83
2023/09/12 04:58:57;;;;;;;0.00;0.00;;;20.10;99.90;;;;;;6217990;23;20004;-83
2023/09/12 05:01:25;;;;;;;0.00;0.00;;;;;;;;;;6219184;23;20011;-82
2023/09/12 05:03:50;;;;;;;0.00;0.00;;;20.10;99.90;;;;;;6244387;23;19997;-82
2023/09/12 05:06:16;;;;;;;0.00;0.00;;;20.50;99.90;;;;;;6214083;23;20004;-82
2023/09/12 05:08:42;;;;;;;0.00;0.00;;;;;;;;;;6216000;23;20022;-82
2023/09/12 05:11:08;;;;;;;0.00;0.00;;;20.00;99.90;;;;;;6216547;23;20003;-83
2023/09/12 05:13:34;;;;;;;0.00;0.00;;;20.00;99.90;;;;;;6217084;23;20008;-83
2023/09/12 05:16:00;;;;;;;0.00;0.00;;;;;;;;;;6216884;23;20099;-84
2023/09/12 05:18:26;;;;;;;0.00;0.00;;;;;;;;;;6217383;23;20000;-82
2023/09/12 05:20:51;;;;;;;0.00;0.00;;;20.00;99.90;;;;;;6218265;23;19997;-83
2023/09/12 05:23:17;;;;;;;0.00;0.00;;;;;;;;;;6217333;23;20003;-83
2023/09/12 05:25:43;;;;;;;0.00;0.00;;;20.00;99.90;;;;;;6217048;23;20439;-83
2023/09/12 05:28:09;;;;;;;0.00;0.00;;;;;;;;;;6217743;23;20083;-83
2023/09/12 05:30:35;;;;;;;0.00;0.00;;;;;;;;;;6218553;23;20083;-83
2023/09/12 05:33:01;;;;;;;0.00;0.00;;;;;;;;;;6245177;23;20000;-83
2023/09/12 05:35:26;;;;;;;0.00;0.00;;;20.00;99.90;;;;;;6245040;22;20000;-85
2023/09/12 05:37:52;;;;;;;0.00;0.00;;;;;;;;;;6217587;23;20015;-83
2023/09/12 05:40:18;;;;;;;0.00;0.00;;;;;;;;;;6218845;23;20428;-85
2023/09/12 05:42:44;;;;;;;0.00;0.00;;;19.90;99.90;;;;;;6218651;23;20012;-83
2023/09/12 05:45:10;;;;;;;0.00;0.00;;;21.40;99.90;;;;;;6218670;23;20029;-85
2023/09/12 05:47:36;;;;;;;0.00;0.00;;;19.80;99.90;;;;;;6218382;23;20099;-83
2023/09/12 05:50:05;;;;;;;0.00;0.00;;;19.70;99.90;;;;;;6218626;23;20004;-84
2023/09/12 05:52:31;;;;;;;0.00;0.00;;;;;;;;;;6218625;23;20339;-83
2023/09/12 05:54:57;;;;;;;0.00;0.00;;;;;;;;;;6217907;23;20000;-85
2023/09/12 05:57:23;;;;;;;0.00;0.00;;;19.80;99.90;;;;;;6217767;23;20485;-83
2023/09/12 05:59:49;;;;;;;0.00;0.00;;;19.80;99.90;;;;;;6217675;23;20004;-82
2023/09/12 06:02:15;;;;;;;0.00;0.00;;;;;;;;;;6217803;23;20083;-83
2023/09/12 06:04:41;;;;;;;0.00;0.00;;;;;;;;;;6217835;23;20012;-83
2023/09/12 06:07:07;;;;;;;0.00;0.00;;;;;;;;;;6218184;23;20095;-83
2023/09/12 06:09:33;;;;;;;0.00;0.00;;;;;;;;;;6245263;23;20004;-84
2023/09/12 06:11:58;;;;;;;0.00;0.00;;;19.70;99.90;;;;;;6218275;23;20008;-83
2023/09/12 06:14:24;;;;;;;0.00;0.00;;;19.70;99.90;;;;;;6218153;22;20008;-84
2023/09/12 06:16:50;;;;;;;0.00;0.00;;;;;;;;;;6217401;23;20011;-83
2023/09/12 06:19:15;;;;;;;0.00;0.00;;;19.70;99.90;;;;;;6218325;23;20009;-82
2023/09/12 06:21:43;;;;;;;0.00;0.00;;;19.70;99.90;;;;;;6217376;23;20008;-84
2023/09/12 06:24:21;;;;;;;0.00;0.00;;;19.40;99.90;;;;;;6218031;22;20000;-84
2023/09/12 06:26:47;;;;;;;0.00;0.00;;;19.40;99.90;;;;;;6218288;23;20020;-85
2023/09/12 06:29:13;;;;;;;0.00;0.00;;;19.50;99.90;;;;;;6217508;23;20008;-84
2023/09/12 06:31:41;;;;;;;0.00;0.00;;;19.40;99.90;;;;;;6217830;23;20004;-84
2023/09/12 06:34:06;;;;;;;0.00;0.00;;;19.50;99.90;;;;;;6217726;22;20008;-83
2023/09/12 06:36:33;;;;;;;0.00;0.00;;;;;;;;;;6217554;23;20547;-85
2023/09/12 06:38:59;;;;;;;0.00;0.00;;;19.60;99.90;;;;;;6217850;23;20001;-84
2023/09/12 06:41:26;;;;;;;0.00;0.00;;;19.40;99.90;;;;;;6245293;23;20101;-84
2023/09/12 06:43:51;;;;;;;0.00;0.00;;;19.40;99.90;;;;;;6218971;23;20012;-83
2023/09/12 06:46:17;;;;;;;0.00;0.00;;;;;;;;;;6219422;23;20015;-85
2023/09/12 06:48:44;;;;;;;0.00;0.00;;;19.30;99.90;;;;;;6219919;23;20078;-83
2023/09/12 06:51:10;;;;;;;0.00;0.00;;;19.40;99.90;;;;;;6220233;23;20042;-83
2023/09/12 06:53:39;;;;;;;0.00;0.00;;;;;;;;;;6220051;23;20004;-84
2023/09/12 06:56:05;;;;;;;0.00;0.00;;;19.30;99.90;;;;;;6220122;23;20059;-85
2023/09/12 06:58:32;;;;;;;0.00;0.00;;;19.30;99.90;;;;;;6219946;23;20099;-83
2023/09/12 07:01:07;;;;;;;0.00;0.00;;;19.50;99.90;;;;;;6219669;23;20456;-84
2023/09/12 07:03:36;;;;;;;0.00;0.00;;;19.30;99.90;;;;;;6219837;23;20050;-84
2023/09/12 07:06:03;;;;;;;0.00;0.00;;;19.30;99.90;;;;;;6219570;23;20040;-85
2023/09/12 07:08:30;;;;;;;0.00;0.00;;;19.30;99.90;;;;;;6219856;23;20007;-84
2023/09/12 07:10:57;;;;;;;0.00;0.00;;;19.40;99.90;;;;;;6219900;23;20015;-85
2023/09/12 07:13:23;;;;;;;0.00;0.00;;;19.40;99.90;;;;;;6220102;23;20067;-85
2023/09/12 07:15:50;;;;;;;0.00;0.00;;;19.30;99.90;;;;;;6246526;22;20061;-83
2023/09/12 07:18:15;;;;;;;0.00;0.00;;;19.40;99.90;;;;;;6219608;23;19996;-83
2023/09/12 07:20:41;;;;;;;0.00;0.00;;;19.50;99.90;;;;;;6194312;23;20027;-84
2023/09/12 07:23:07;;;;;;;0.00;0.00;;;19.50;99.90;;;;;;6246594;23;20008;-83
2023/09/12 07:25:41;;;;;;;0.00;0.00;;;19.50;99.90;;;;;;6219627;23;20470;-85
2023/09/12 07:28:07;;;;;;;0.00;0.00;;;19.50;99.90;;;;;;6219727;23;20012;-84
2023/09/12 07:30:33;;;;;;;0.00;0.00;;;19.40;99.90;;;;;;6219751;23;20091;-84
2023/09/12 07:32:59;;;;;;;0.00;0.00;;;;;;;;;;6219473;23;20648;-85
2023/09/12 07:35:24;;;;;;;0.00;0.00;;;19.40;99.90;;;;;;6218474;23;20087;-83
2023/09/12 07:37:51;;;;;;;0.00;0.00;;;;;;;;;;6217488;23;20035;-84
2023/09/12 07:40:16;;;;;;;0.00;0.00;;;19.40;99.90;;;;;;6217567;23;20007;-84
2023/09/12 07:42:42;;;;;;;0.00;0.00;;;;;;;;;;6218067;23;20008;-84
2023/09/12 07:45:08;;;;;;;0.00;0.00;;;19.30;99.90;;;;;;6218074;23;20000;-83
2023/09/12 07:47:34;;;;;;;0.00;0.00;;;19.30;99.90;;;;;;6219223;23;20004;-84
2023/09/12 07:50:03;;;;;;;0.00;0.00;;;19.30;99.90;;;;;;6218117;23;20054;-83
2023/09/12 07:52:30;;;;;;;0.00;0.00;;;;;;;;;;6218625;23;20095;-85
2023/09/12 07:55:05;;;;;;;0.00;0.00;;;19.30;99.90;;;;;;6217547;23;20004;-84
2023/09/12 07:57:30;;;;;;;0.00;0.00;;;19.30;99.90;;;;;;6217318;23;20011;-84
2023/09/12 07:59:56;;;;;;;0.00;0.00;;;19.30;99.90;;;;;;6217367;23;20727;-84
2023/09/12 08:02:23;;;;;;;0.00;0.00;;;19.30;99.90;;;;;;6217975;23;20335;-84
2023/09/12 08:04:50;;;;;;;0.00;0.00;;;19.20;99.90;;;;;;6217695;23;20309;-82
2023/09/12 08:07:16;;;;;;;0.00;0.00;;;18.90;99.90;;;;;;6218473;23;20008;-85
2023/09/12 08:09:54;;;;;;;0.00;0.00;;;18.90;99.90;;;;;;6217723;23;20008;-84
2023/09/12 08:12:22;;;;;;;0.00;0.00;;;18.70;99.90;;;;;;6217494;23;20097;-85
2023/09/12 08:14:48;;;;;;;0.00;0.00;;;18.80;99.90;;;;;;6223533;23;20098;-85
2023/09/12 08:17:14;;;;;;;0.00;0.00;;;18.70;99.90;;;;;;6217267;23;20015;-83
2023/09/12 08:19:40;;;;;;;0.00;0.00;;;18.60;99.90;;;;;;6217881;23;20004;-84
2023/09/12 08:22:07;;;;;;;0.00;0.00;;;18.50;99.90;;;;;;6217632;23;20011;-84
2023/09/12 08:24:33;;;;;;;0.00;0.00;;;18.50;99.90;;;;;;6216504;23;20004;-85
2023/09/12 08:26:59;;;;;;;0.00;0.00;;;18.50;99.90;;;;;;6217779;23;20082;-83
2023/09/12 08:29:25;;;;;;;0.00;0.00;;;;;;;;;;6220703;23;20271;-85
2023/09/12 08:31:52;;;;;;;0.00;0.00;;;;;;;;;;6230121;23;20451;-87
2023/09/12 08:39:28;;;;;;;0.00;0.00;;;;;;;;;;6243941;23;20078;-83
2023/09/12 08:41:54;;;;;;;0.00;0.00;;;18.30;99.90;;;;;;6214232;23;20015;-83
2023/09/12 08:44:21;;;;;;;0.00;0.00;;;18.30;99.90;;;;;;6216191;22;20546;-83
2023/09/12 08:46:48;;;;;;;0.00;0.00;;;18.30;99.90;;;;;;6216878;23;20099;-83
2023/09/12 08:49:14;;;;;;;0.00;0.00;;;18.30;99.90;;;;;;6191556;23;20508;-85
2023/09/12 08:51:40;;;;;;;0.00;0.00;;;18.30;99.90;;;;;;6217336;23;20008;-86
2023/09/12 08:54:07;;;;;;;0.00;0.00;;;18.30;99.90;;;;;;6216974;23;20004;-83
2023/09/12 08:56:35;;;;;;;0.00;0.00;;;18.30;99.90;;;;;;6244279;22;20008;-85
2023/09/12 08:59:01;;;;;;;0.00;0.00;;;18.30;99.90;;;;;;6217587;23;20004;-84
2023/09/12 09:01:30;;;;;;;0.00;0.00;;;18.30;99.90;;;;;;6217582;23;20008;-84
2023/09/12 09:03:57;;;;;;;0.00;0.00;;;18.20;99.90;;;;;;6217350;23;20007;-84
2023/09/12 09:06:23;;;;;;;0.00;0.00;;;18.40;99.90;;;;;;6216976;23;20561;-84
2023/09/12 09:08:50;;;;;;;0.00;0.00;;;18.40;99.90;;;;;;6216638;23;20046;-85
2023/09/12 09:11:16;;;;;;;0.00;0.00;;;18.50;99.90;;;;;;6218004;23;20008;-84
2023/09/12 09:13:42;;;;;;;0.00;0.00;;;;;;;;;;6217245;23;20050;-84
2023/09/12 09:16:16;;;;;;;0.00;0.00;;;18.60;99.90;;;;;;6216983;23;20004;-84
2023/09/12 09:19:00;;;;;;;0.00;0.00;;;18.60;99.90;;;;;;6216556;23;20000;-85
2023/09/12 09:21:30;;;;;;;0.00;0.00;;;18.60;99.90;;;;;;6216948;23;20015;-83
2023/09/12 09:23:56;;;;;;;0.00;0.00;;;18.60;99.90;;;;;;6216365;23;20031;-85
2023/09/12 09:26:23;;;;;;;0.00;0.00;;;18.70;99.90;;;;;;6216448;23;20004;-83
2023/09/12 09:29:09;;;;;;;0.00;0.00;;;18.60;99.90;;;;;;6217427;23;20086;-84
2023/09/12 09:31:35;;;;;;;0.00;0.00;;;18.60;99.90;;;;;;6216735;23;20012;-84
2023/09/12 09:34:01;;;;;;;0.00;0.00;;;;;;;;;;6216649;23;20005;-85
2023/09/12 09:36:27;;;;;;;0.00;0.00;;;18.70;99.90;;;;;;6218049;23;20464;-84
2023/09/12 09:38:56;;;;;;;0.00;0.00;;;18.70;99.90;;;;;;6192680;23;20019;-85
2023/09/12 09:41:22;;;;;;;0.00;0.00;;;;;;;;;;6218595;23;20320;-84
2023/09/12 09:43:51;;;;;;;0.00;0.00;;;18.80;99.90;;;;;;6245745;22;20003;-84
2023/09/12 09:46:17;;;;;;;0.00;0.00;;;;;;;;;;6218129;23;20008;-84
2023/09/12 09:48:50;;;;;;;0.00;0.00;;;19.00;99.90;;;;;;6218234;23;20012;-84
2023/09/12 09:51:16;;;;;;;0.00;0.00;;;18.90;99.90;;;;;;6218664;23;20443;-82
2023/09/12 09:53:43;;;;;;;0.00;0.00;;;;;;;;;;6218462;23;20011;-84
2023/09/12 09:56:14;;;;;;;0.00;0.00;;;18.80;99.90;;;;;;6217527;23;20014;-83
2023/09/12 09:58:51;;;;;;;0.00;0.00;;;18.70;99.90;;;;;;6217790;23;20001;-83
2023/09/12 10:01:27;;;;;;;0.00;0.00;;;18.70;99.90;;;;;;6218403;23;20495;-84
2023/09/12 10:03:58;;;;;;;0.00;0.00;;;18.70;99.90;;;;;;6217653;23;20014;-83
2023/09/12 10:06:24;;;;;;;0.00;0.00;;;18.70;99.90;;;;;;6217927;23;20062;-83
2023/09/12 10:08:53;;;;;;;0.00;0.00;;;18.70;99.90;;;;;;6217519;23;20008;-85
2023/09/12 10:11:23;;;;;;;0.00;0.00;;;18.70;99.90;;;;;;6217415;23;20004;-84
2023/09/12 10:14:02;;;;;;;0.00;0.00;;;18.80;99.90;;;;;;6217644;23;20008;-84
2023/09/12 10:16:31;;;;;;;0.00;0.00;;;18.80;99.90;;;;;;6216722;23;20497;-84
2023/09/12 10:19:15;;;;;;;0.00;0.00;;;18.90;99.90;;;;;;6217397;23;20004;-84
2023/09/12 10:22:11;;;;;;;0.00;0.00;;;18.80;99.90;;;;;;6218724;23;20054;-85
2023/09/12 10:24:38;;;;;;;0.00;0.00;;;18.80;99.90;;;;;;6219507;22;20496;-84
2023/09/12 10:27:05;;;;;;;0.00;0.00;;;18.90;99.90;;;;;;6219235;23;20007;-84
2023/09/12 10:29:31;;;;;;;0.00;0.00;;;18.70;99.90;;;;;;6194368;23;20008;-84
2023/09/12 10:31:57;;;;;;;0.00;0.00;;;;;;;;;;6218249;23;20042;-84
2023/09/12 10:34:25;;;;;;;0.00;0.00;;;18.70;99.90;;;;;;6217879;22;20016;-84
2023/09/12 10:36:52;;;;;;;0.00;0.00;;;18.70;99.90;;;;;;6215534;23;20015;-83
2023/09/12 10:39:19;;;;;;;0.00;0.00;;;18.60;99.90;;;;;;6218141;23;20431;-83
2023/09/12 10:41:46;;;;;;;0.00;0.00;;;18.70;99.90;;;;;;6218177;23;20087;-86
2023/09/12 10:44:17;;;;;;;0.00;0.00;;;18.70;99.90;;;;;;6218947;23;20043;-85
2023/09/12 10:46:44;;;;;;;0.00;0.00;;;18.70;99.90;;;;;;6216907;23;20008;-85
2023/09/12 10:49:11;;;;;;;0.00;0.00;;;18.90;99.90;;;;;;6219142;23;20427;-83
2023/09/12 10:51:44;;;;;;;0.00;0.00;;;18.90;99.90;;;;;;6218975;23;20030;-85
2023/09/12 10:54:25;;;;;;;0.00;0.00;;;18.80;99.90;;;;;;6218560;23;20004;-85
2023/09/12 10:57:13;;;;;;;0.00;0.00;;;18.80;99.90;;;;;;6219074;23;20015;-84
2023/09/12 10:59:58;;;;;;;0.00;0.00;;;18.80;99.90;;;;;;6218617;23;20004;-83
2023/09/12 11:02:32;;;;;;;0.00;0.00;;;18.70;99.90;;;;;;6217563;23;20111;-84
2023/09/12 11:04:59;;;;;;;0.00;0.00;;;18.60;99.90;;;;;;6245352;22;19992;-83
2023/09/12 11:07:44;;;;;;;0.00;0.00;;;18.70;99.90;;;;;;6218014;23;20008;-84
2023/09/12 11:10:15;;;;;;;0.00;0.00;;;18.70;99.90;;;;;;6219933;23;20008;-85
2023/09/12 11:12:41;;;;;;;0.00;0.00;;;18.90;99.90;;;;;;6218090;23;20042;-84
2023/09/12 11:15:11;;;;;;;0.00;0.00;;;18.80;99.90;;;;;;6217431;23;20087;-84
2023/09/12 11:17:40;;;;;;;0.00;0.00;;;18.80;99.90;;;;;;6217528;23;20012;-83
2023/09/12 11:20:10;;;;;;;0.00;0.00;;;18.90;99.90;;;;;;6245286;23;20064;-85
2023/09/12 11:22:39;;;;;;;;;;;18.80;99.90;;;;;;6218511;23;20008;-84
2023/09/12 11:25:15;;;;;;;0.00;0.00;;;19.00;99.90;;;;;;6217799;23;20346;-84
2023/09/12 11:27:53;;;;;;;0.00;0.00;;;19.10;99.90;;;;;;6244057;23;20331;-84
2023/09/12 11:30:19;;;;;;;0.00;0.00;;;19.20;99.90;;;;;;6217718;23;20000;-84
2023/09/12 11:32:53;;;;;;;0.00;0.00;;;19.30;99.90;;;;;;6216581;23;20000;-85
2023/09/12 11:35:36;;;;;;;0.00;0.00;;;19.60;99.90;;;;;;6216560;23;20039;-85
2023/09/12 11:38:02;;;;;;;0.00;0.00;;;19.80;99.90;;;;;;6217866;23;20366;-87
2023/09/12 11:40:34;;;;;;;0.00;0.00;;;20.00;99.90;;;;;;6216560;23;20435;-85
2023/09/12 11:43:00;;;;;;;0.00;0.00;;;20.10;99.90;;;;;;6240897;22;20030;-84
2023/09/12 11:45:27;;;;;;;0.00;0.00;;;20.20;99.90;;;;;;6216712;23;20027;-84
2023/09/12 11:47:53;;;;;;;0.00;0.00;;;;;;;;;;6217998;23;20142;-86
2023/09/12 11:50:29;;;;;;;0.00;0.00;;;20.60;99.90;;;;;;6218412;23;20055;-86
2023/09/12 11:53:01;;;;;;;0.00;0.00;;;20.70;99.90;;;;;;6218457;23;20008;-86
2023/09/12 11:55:29;;;;;;;0.00;0.00;;;20.90;99.90;;;;;;6216878;23;20008;-86
2023/09/12 11:57:54;;;;;;;0.00;0.00;;;20.90;99.90;;;;;;6215850;23;20000;-86
2023/09/12 12:00:20;;;;;;;0.00;0.00;;;;;;;;;;6217069;23;20340;-85
2023/09/12 12:02:46;;;;;;;0.00;0.00;;;;;;;;;;6216106;23;20008;-86
2023/09/12 12:05:13;;;;;;;0.00;0.00;;;20.80;99.90;;;;;;6215376;23;20004;-87
2023/09/12 12:07:39;;;;;;;0.00;0.00;;;20.90;99.90;;;;;;6215379;23;20014;-86
2023/09/12 12:10:05;;;;;;;0.00;0.00;;;21.00;99.90;;;;;;6215420;23;20007;-86
2023/09/12 12:12:31;;;;;;;0.00;0.00;;;;;;;;;;6216100;23;20004;-86
2023/09/12 12:14:56;;;;;;;0.00;0.00;;;20.90;99.90;;;;;;6216559;23;20012;-87
2023/09/12 12:17:22;;;;;;;0.00;0.00;;;;;;;;;;6216121;23;20004;-87
2023/09/12 12:19:48;;;;;;;0.00;0.00;;;21.40;99.90;;;;;;6217478;23;20058;-86
2023/09/12 12:22:14;;;;;;;0.00;0.00;;;;;;;;;;6217717;23;20034;-86
2023/09/12 12:24:42;;;;;;;0.00;0.00;;;21.50;99.90;;;;;;6218432;22;20000;-85
2023/09/12 12:27:09;;;;;;;0.00;0.00;;;21.60;99.90;;;;;;6217457;23;20015;-86
2023/09/12 12:29:37;;;;;;;0.00;0.00;;;21.60;99.90;;;;;;6218104;23;20008;-85
2023/09/12 12:32:05;;;;;;;0.00;0.00;;;21.70;99.90;;;;;;6217147;23;20008;-87
2023/09/12 12:34:31;;;;;;;0.00;0.00;;;21.80;99.90;;;;;;6218109;22;20069;-87
2023/09/12 12:36:57;;;;;;;0.00;0.00;;;21.80;99.90;;;;;;6192602;23;20137;-86
2023/09/12 12:39:23;;;;;;;0.00;0.00;;;;;;;;;;6218204;23;20018;-86
2023/09/12 12:41:51;;;;;;;0.00;0.00;;;21.40;99.90;;;;;;6217238;23;20098;-86
2023/09/12 12:44:17;;;;;;;0.00;0.00;;;21.20;99.90;;;;;;6218403;23;19996;-85
2023/09/12 12:46:53;;;;;;;0.00;0.00;;;21.50;99.90;;;;;;6217672;23;20016;-85
2023/09/12 12:49:20;;;;;;;0.00;0.00;;;21.70;99.90;;;;;;6219553;23;20435;-86
2023/09/12 12:51:47;;;;;;;0.00;0.00;;;22.00;99.90;;;;;;6219139;23;20012;-86
2023/09/12 12:54:13;;;;;;;0.00;0.00;;;21.90;99.90;;;;;;6219407;23;20083;-85
2023/09/12 12:56:39;;;;;;;0.00;0.00;;;21.80;99.90;;;;;;6218924;23;20012;-84
2023/09/12 12:59:08;;;;;;;0.00;0.00;;;21.50;99.90;;;;;;6218990;23;20492;-85
2023/09/12 13:01:35;;;;;;;0.00;0.00;;;21.80;99.90;;;;;;6219168;23;20000;-87
2023/09/12 13:04:00;;;;;;;0.00;0.00;;;22.20;99.90;;;;;;6214892;23;20427;-85
2023/09/12 13:06:27;;;;;;;0.00;0.00;;;;;;;;;;6216142;23;20011;-87
2023/09/12 13:08:53;;;;;;;0.00;0.00;;;22.10;99.90;;;;;;6216213;23;20020;-85
2023/09/12 13:11:20;;;;;;;0.00;0.00;;;;;;;;;;6216894;23;20378;-85
2023/09/12 13:13:49;;;;;;;0.00;0.00;;;22.00;99.90;;;;;;6216600;23;20004;-85
2023/09/12 13:16:15;;;;;;;0.00;0.00;;;22.30;99.90;;;;;;6216576;23;20004;-85
2023/09/12 13:18:41;;;;;;;0.00;0.00;;;;;;;;;;6216898;23;20035;-86
2023/09/12 13:21:07;;;;;;;0.00;0.00;;;;;;;;;;6216943;23;19996;-86
2023/09/12 13:23:37;;;;;;;0.00;0.00;;;22.50;99.90;;;;;;6216541;23;20019;-85
2023/09/12 13:26:04;;;;;;;0.00;0.00;;;;;;;;;;6215454;23;20096;-86
2023/09/12 13:28:30;;;;;;;0.00;0.00;;;22.20;99.90;;;;;;6215713;23;20004;-85
2023/09/12 13:30:57;;;;;;;0.00;0.00;;;22.40;99.90;;;;;;6217228;23;20011;-85